<?xml version="1.0" encoding="UTF-8" standalone="no" ?>
<gpx xmlns="http://www.topografix.com/GPX/1/1" xmlns:xsi="http://www.w3.org/2001/XMLSchema-instance" xsi:schemaLocation="http://www.topografix.com/GPX/1/1 http://www.topografix.com/GPX/1/1/gpx.xsd" version="1.1" creator="VisuGPX - https://www.visugpx.com">
  <metadata>
    <name>GR10 ~ 43 étape - Mérens-les-Vals / Cabane de Rouzet</name>
  </metadata>
  <wpt lat="42.65627" lon="1.84305">
    <ele>1141.9</ele>
    <name><![CDATA[Mérens-les-Vals]]></name>
    <desc><![CDATA[Auberge du Nabre
Journées de repos
Alt: 1143.6m]]></desc>
    <type><![CDATA[hotel]]></type>
  </wpt>
  <wpt lat="42.61565" lon="1.87215">
    <ele>2328.5</ele>
    <name><![CDATA[Porteille des Bésines]]></name>
    <desc><![CDATA[Alt: 2328.5m]]></desc>
    <type><![CDATA[col]]></type>
  </wpt>
  <wpt lat="42.6039" lon="1.86853">
    <ele>2097.2</ele>
    <name><![CDATA[Refuge des Besines]]></name>
    <desc><![CDATA[Alt: 2097.2m]]></desc>
    <link href="https://refugedesbesines.ffcam.fr/"></link>
    <cmt><![CDATA[+33 9 88 77 35 28]]></cmt>
    <type><![CDATA[refuge]]></type>
  </wpt>
  <wpt lat="42.6106" lon="1.89833">
    <ele>2482.3</ele>
    <name><![CDATA[Coll de Coma d'Anyell]]></name>
    <desc><![CDATA[Alt: 2482.3m]]></desc>
    <type><![CDATA[col]]></type>
  </wpt>
  <wpt lat="42.59743" lon="1.91967">
    <ele>2258.9</ele>
    <name><![CDATA[Cabane de Rouzet]]></name>
    <desc><![CDATA[Alt: 2258.4m]]></desc>
    <type><![CDATA[cabane]]></type>
  </wpt>
  <wpt lat="42.59744" lon="1.92007">
    <ele>2257.4</ele>
  </wpt>
  <wpt lat="42.59744" lon="1.92007">
    <ele>2257.4</ele>
    <name><![CDATA[Bivouac]]></name>
    <desc><![CDATA[Bivouac
Alt: 2257.4m]]></desc>
    <type><![CDATA[camping]]></type>
  </wpt>
  <trk>
    <name><![CDATA[GR10 ~ 43 étape - Mérens-les-Vals / Cabane de Rouzet_1]]></name>
    <desc><![CDATA[]]></desc>
    <trkseg>
      <trkpt lat="42.65621" lon="1.84292">
        <ele>1139.7</ele>
      </trkpt>
      <trkpt lat="42.65616" lon="1.84292">
        <ele>1139.6</ele>
      </trkpt>
      <trkpt lat="42.65598" lon="1.84298">
        <ele>1140.6</ele>
      </trkpt>
      <trkpt lat="42.65595" lon="1.84309">
        <ele>1142.6</ele>
      </trkpt>
      <trkpt lat="42.65595" lon="1.84309">
        <ele>1142.6</ele>
        <extensions>
          <visugpx:TrkExtension xmlns:visugpx="https://www.visugpx.com/editgpx/">
            <visugpx:node>1</visugpx:node>
            </visugpx:TrkExtension>
        </extensions>
      </trkpt>
      <trkpt lat="42.65595" lon="1.8432">
        <ele>1194</ele>
        <time>2024-08-16T08:04:07+02:00</time>
        <extensions>
          <visugpx:TrkExtension xmlns:visugpx="https://www.visugpx.com/editgpx/">
            <visugpx:node>2</visugpx:node>
            </visugpx:TrkExtension>
        </extensions>
      </trkpt>
      <trkpt lat="42.65604" lon="1.84378">
        <ele>1196</ele>
        <time>2024-08-16T08:04:58+02:00</time>
      </trkpt>
      <trkpt lat="42.6557" lon="1.84415">
        <ele>1213</ele>
        <time>2024-08-16T08:06:19+02:00</time>
      </trkpt>
      <trkpt lat="42.65557" lon="1.84474">
        <ele>1221</ele>
        <time>2024-08-16T08:07:13+02:00</time>
      </trkpt>
      <trkpt lat="42.65549" lon="1.84534">
        <ele>1227</ele>
        <time>2024-08-16T08:08:13+02:00</time>
      </trkpt>
      <trkpt lat="42.65518" lon="1.84582">
        <ele>1231</ele>
        <time>2024-08-16T08:09:26+02:00</time>
      </trkpt>
      <trkpt lat="42.65469" lon="1.84583">
        <ele>1232</ele>
        <time>2024-08-16T08:10:09+02:00</time>
      </trkpt>
      <trkpt lat="42.65468" lon="1.8464">
        <ele>1230</ele>
        <time>2024-08-16T08:10:57+02:00</time>
      </trkpt>
      <trkpt lat="42.65449" lon="1.8469">
        <ele>1240</ele>
        <time>2024-08-16T08:11:44+02:00</time>
      </trkpt>
      <trkpt lat="42.6545" lon="1.84759">
        <ele>1248</ele>
        <time>2024-08-16T08:12:44+02:00</time>
      </trkpt>
      <trkpt lat="42.65423" lon="1.84801">
        <ele>1259</ele>
        <time>2024-08-16T08:13:45+02:00</time>
      </trkpt>
      <trkpt lat="42.65409" lon="1.84858">
        <ele>1269</ele>
        <time>2024-08-16T08:14:31+02:00</time>
      </trkpt>
      <trkpt lat="42.65377" lon="1.84899">
        <ele>1274</ele>
        <time>2024-08-16T08:15:14+02:00</time>
      </trkpt>
      <trkpt lat="42.65342" lon="1.84931">
        <ele>1292</ele>
        <time>2024-08-16T08:16:07+02:00</time>
      </trkpt>
      <trkpt lat="42.65298" lon="1.84946">
        <ele>1310</ele>
        <time>2024-08-16T08:19:41+02:00</time>
      </trkpt>
      <trkpt lat="42.65267" lon="1.85004">
        <ele>1324</ele>
        <time>2024-08-16T08:21:02+02:00</time>
      </trkpt>
      <trkpt lat="42.65249" lon="1.85057">
        <ele>1335</ele>
        <time>2024-08-16T08:21:43+02:00</time>
      </trkpt>
      <trkpt lat="42.65213" lon="1.85089">
        <ele>1344</ele>
        <time>2024-08-16T08:23:00+02:00</time>
      </trkpt>
      <trkpt lat="42.65189" lon="1.8514">
        <ele>1354</ele>
        <time>2024-08-16T08:25:43+02:00</time>
      </trkpt>
      <trkpt lat="42.65209" lon="1.85188">
        <ele>1366</ele>
        <time>2024-08-16T08:27:01+02:00</time>
      </trkpt>
      <trkpt lat="42.65176" lon="1.8523">
        <ele>1381</ele>
        <time>2024-08-16T08:29:06+02:00</time>
      </trkpt>
      <trkpt lat="42.65134" lon="1.85244">
        <ele>1392</ele>
        <time>2024-08-16T08:30:19+02:00</time>
      </trkpt>
      <trkpt lat="42.65112" lon="1.85291">
        <ele>1400</ele>
        <time>2024-08-16T08:31:23+02:00</time>
      </trkpt>
      <trkpt lat="42.65067" lon="1.85304">
        <ele>1409</ele>
        <time>2024-08-16T08:32:11+02:00</time>
      </trkpt>
      <trkpt lat="42.65036" lon="1.85359">
        <ele>1416</ele>
        <time>2024-08-16T08:33:27+02:00</time>
      </trkpt>
      <trkpt lat="42.6502" lon="1.85418">
        <ele>1425</ele>
        <time>2024-08-16T08:34:39+02:00</time>
      </trkpt>
      <trkpt lat="42.64993" lon="1.85462">
        <ele>1430</ele>
        <time>2024-08-16T08:35:33+02:00</time>
      </trkpt>
      <trkpt lat="42.64958" lon="1.85495">
        <ele>1438</ele>
        <time>2024-08-16T08:36:27+02:00</time>
      </trkpt>
      <trkpt lat="42.64944" lon="1.85562">
        <ele>1441</ele>
        <time>2024-08-16T08:37:27+02:00</time>
      </trkpt>
      <trkpt lat="42.64916" lon="1.85613">
        <ele>1445</ele>
        <time>2024-08-16T08:38:15+02:00</time>
      </trkpt>
      <trkpt lat="42.64892" lon="1.85659">
        <ele>1451</ele>
        <time>2024-08-16T08:39:03+02:00</time>
      </trkpt>
      <trkpt lat="42.64863" lon="1.85701">
        <ele>1456</ele>
        <time>2024-08-16T08:39:46+02:00</time>
      </trkpt>
      <trkpt lat="42.64825" lon="1.85733">
        <ele>1465</ele>
        <time>2024-08-16T08:40:39+02:00</time>
      </trkpt>
      <trkpt lat="42.64783" lon="1.85768">
        <ele>1473</ele>
        <time>2024-08-16T08:41:33+02:00</time>
      </trkpt>
      <trkpt lat="42.64757" lon="1.85814">
        <ele>1483</ele>
        <time>2024-08-16T08:42:27+02:00</time>
      </trkpt>
      <trkpt lat="42.64729" lon="1.85857">
        <ele>1493</ele>
        <time>2024-08-16T08:43:45+02:00</time>
      </trkpt>
      <trkpt lat="42.64704" lon="1.85907">
        <ele>1506</ele>
        <time>2024-08-16T08:45:43+02:00</time>
      </trkpt>
      <trkpt lat="42.64667" lon="1.85948">
        <ele>1517</ele>
        <time>2024-08-16T08:47:07+02:00</time>
      </trkpt>
      <trkpt lat="42.64639" lon="1.85989">
        <ele>1528</ele>
        <time>2024-08-16T08:48:19+02:00</time>
      </trkpt>
      <trkpt lat="42.64599" lon="1.8602">
        <ele>1540</ele>
        <time>2024-08-16T08:49:48+02:00</time>
      </trkpt>
      <trkpt lat="42.64582" lon="1.86072">
        <ele>1545</ele>
        <time>2024-08-16T08:51:44+02:00</time>
      </trkpt>
      <trkpt lat="42.64548" lon="1.86109">
        <ele>1550</ele>
        <time>2024-08-16T08:52:56+02:00</time>
      </trkpt>
      <trkpt lat="42.64525" lon="1.86155">
        <ele>1557</ele>
        <time>2024-08-16T08:54:08+02:00</time>
      </trkpt>
      <trkpt lat="42.64499" lon="1.86203">
        <ele>1560</ele>
        <time>2024-08-16T08:55:33+02:00</time>
      </trkpt>
      <trkpt lat="42.64459" lon="1.86236">
        <ele>1565</ele>
        <time>2024-08-16T08:57:14+02:00</time>
      </trkpt>
      <trkpt lat="42.64418" lon="1.86236">
        <ele>1572</ele>
        <time>2024-08-16T08:57:57+02:00</time>
      </trkpt>
      <trkpt lat="42.64374" lon="1.8625">
        <ele>1579</ele>
        <time>2024-08-16T08:58:44+02:00</time>
      </trkpt>
      <trkpt lat="42.64331" lon="1.86261">
        <ele>1590</ele>
        <time>2024-08-16T08:59:28+02:00</time>
      </trkpt>
      <trkpt lat="42.64291" lon="1.8627">
        <ele>1595</ele>
        <time>2024-08-16T09:00:09+02:00</time>
      </trkpt>
      <trkpt lat="42.64249" lon="1.86278">
        <ele>1601</ele>
        <time>2024-08-16T09:00:52+02:00</time>
      </trkpt>
      <trkpt lat="42.64205" lon="1.86273">
        <ele>1609</ele>
        <time>2024-08-16T09:01:45+02:00</time>
      </trkpt>
      <trkpt lat="42.64162" lon="1.86287">
        <ele>1619</ele>
        <time>2024-08-16T09:02:57+02:00</time>
      </trkpt>
      <trkpt lat="42.64138" lon="1.86334">
        <ele>1630</ele>
        <time>2024-08-16T09:04:27+02:00</time>
      </trkpt>
      <trkpt lat="42.64113" lon="1.86377">
        <ele>1639</ele>
        <time>2024-08-16T09:05:45+02:00</time>
      </trkpt>
      <trkpt lat="42.64073" lon="1.86404">
        <ele>1651</ele>
        <time>2024-08-16T09:07:03+02:00</time>
      </trkpt>
      <trkpt lat="42.64036" lon="1.86431">
        <ele>1663</ele>
        <time>2024-08-16T09:08:46+02:00</time>
      </trkpt>
      <trkpt lat="42.63994" lon="1.8644">
        <ele>1679</ele>
        <time>2024-08-16T09:10:03+02:00</time>
      </trkpt>
      <trkpt lat="42.63971" lon="1.86489">
        <ele>1693</ele>
        <time>2024-08-16T09:11:51+02:00</time>
      </trkpt>
      <trkpt lat="42.63949" lon="1.86536">
        <ele>1707</ele>
        <time>2024-08-16T09:12:45+02:00</time>
      </trkpt>
      <trkpt lat="42.63923" lon="1.86581">
        <ele>1719</ele>
        <time>2024-08-16T09:14:11+02:00</time>
      </trkpt>
      <trkpt lat="42.63879" lon="1.86576">
        <ele>1724</ele>
        <time>2024-08-16T09:15:35+02:00</time>
      </trkpt>
      <trkpt lat="42.63835" lon="1.86572">
        <ele>1735</ele>
        <time>2024-08-16T09:16:11+02:00</time>
      </trkpt>
      <trkpt lat="42.63792" lon="1.86595">
        <ele>1744</ele>
        <time>2024-08-16T09:17:55+02:00</time>
      </trkpt>
      <trkpt lat="42.63802" lon="1.86652">
        <ele>1751</ele>
        <time>2024-08-16T09:19:05+02:00</time>
      </trkpt>
      <trkpt lat="42.63778" lon="1.867">
        <ele>1756</ele>
        <time>2024-08-16T09:21:05+02:00</time>
      </trkpt>
      <trkpt lat="42.63737" lon="1.8671">
        <ele>1758</ele>
        <time>2024-08-16T09:23:18+02:00</time>
      </trkpt>
      <trkpt lat="42.63693" lon="1.86737">
        <ele>1759</ele>
        <time>2024-08-16T09:24:23+02:00</time>
      </trkpt>
      <trkpt lat="42.63649" lon="1.86754">
        <ele>1761</ele>
        <time>2024-08-16T09:26:11+02:00</time>
      </trkpt>
      <trkpt lat="42.63606" lon="1.8676">
        <ele>1766</ele>
        <time>2024-08-16T09:27:24+02:00</time>
      </trkpt>
      <trkpt lat="42.63574" lon="1.86793">
        <ele>1766</ele>
        <time>2024-08-16T09:28:06+02:00</time>
      </trkpt>
      <trkpt lat="42.63543" lon="1.86832">
        <ele>1769</ele>
        <time>2024-08-16T09:28:53+02:00</time>
      </trkpt>
      <trkpt lat="42.63507" lon="1.86864">
        <ele>1772</ele>
        <time>2024-08-16T09:29:48+02:00</time>
      </trkpt>
      <trkpt lat="42.63463" lon="1.86873">
        <ele>1774</ele>
        <time>2024-08-16T09:30:54+02:00</time>
      </trkpt>
      <trkpt lat="42.63428" lon="1.86904">
        <ele>1778</ele>
        <time>2024-08-16T09:31:54+02:00</time>
      </trkpt>
      <trkpt lat="42.6338" lon="1.86922">
        <ele>1780</ele>
        <time>2024-08-16T09:33:00+02:00</time>
      </trkpt>
      <trkpt lat="42.63344" lon="1.86959">
        <ele>1783</ele>
        <time>2024-08-16T09:33:54+02:00</time>
      </trkpt>
      <trkpt lat="42.63307" lon="1.86985">
        <ele>1788</ele>
        <time>2024-08-16T09:35:17+02:00</time>
      </trkpt>
      <trkpt lat="42.63293" lon="1.87038">
        <ele>1790</ele>
        <time>2024-08-16T09:36:24+02:00</time>
      </trkpt>
      <trkpt lat="42.63278" lon="1.87094">
        <ele>1793</ele>
        <time>2024-08-16T09:37:30+02:00</time>
      </trkpt>
      <trkpt lat="42.63249" lon="1.87138">
        <ele>1795</ele>
        <time>2024-08-16T09:38:24+02:00</time>
      </trkpt>
      <trkpt lat="42.6321" lon="1.87165">
        <ele>1797</ele>
        <time>2024-08-16T09:39:36+02:00</time>
      </trkpt>
      <trkpt lat="42.63184" lon="1.87212">
        <ele>1803</ele>
        <time>2024-08-16T09:40:53+02:00</time>
      </trkpt>
      <trkpt lat="42.63172" lon="1.8727">
        <ele>1811</ele>
        <time>2024-08-16T09:42:07+02:00</time>
      </trkpt>
      <trkpt lat="42.63152" lon="1.87319">
        <ele>1823</ele>
        <time>2024-08-16T09:43:00+02:00</time>
      </trkpt>
      <trkpt lat="42.63111" lon="1.87344">
        <ele>1832</ele>
        <time>2024-08-16T09:43:37+02:00</time>
      </trkpt>
      <trkpt lat="42.63133" lon="1.874">
        <ele>1840</ele>
        <time>2024-08-16T09:44:49+02:00</time>
      </trkpt>
      <trkpt lat="42.63112" lon="1.87447">
        <ele>1848</ele>
        <time>2024-08-16T09:46:00+02:00</time>
      </trkpt>
      <trkpt lat="42.63092" lon="1.87501">
        <ele>1857</ele>
        <time>2024-08-16T09:46:47+02:00</time>
      </trkpt>
      <trkpt lat="42.63074" lon="1.87554">
        <ele>1864</ele>
        <time>2024-08-16T09:47:41+02:00</time>
      </trkpt>
      <trkpt lat="42.63077" lon="1.87612">
        <ele>1870</ele>
        <time>2024-08-16T09:49:23+02:00</time>
      </trkpt>
      <trkpt lat="42.63053" lon="1.87664">
        <ele>1876</ele>
        <time>2024-08-16T09:50:23+02:00</time>
      </trkpt>
      <trkpt lat="42.63026" lon="1.87707">
        <ele>1883</ele>
        <time>2024-08-16T09:51:11+02:00</time>
      </trkpt>
      <trkpt lat="42.6302" lon="1.87761">
        <ele>1894</ele>
        <time>2024-08-16T09:51:58+02:00</time>
      </trkpt>
      <trkpt lat="42.63003" lon="1.87815">
        <ele>1906</ele>
        <time>2024-08-16T09:53:11+02:00</time>
      </trkpt>
      <trkpt lat="42.62965" lon="1.87846">
        <ele>1918</ele>
        <time>2024-08-16T09:54:16+02:00</time>
      </trkpt>
      <trkpt lat="42.62923" lon="1.87851">
        <ele>1935</ele>
        <time>2024-08-16T09:55:34+02:00</time>
      </trkpt>
      <trkpt lat="42.6288" lon="1.87861">
        <ele>1952</ele>
        <time>2024-08-16T09:56:28+02:00</time>
      </trkpt>
      <trkpt lat="42.62851" lon="1.87903">
        <ele>1969</ele>
        <time>2024-08-16T10:11:14+02:00</time>
      </trkpt>
      <trkpt lat="42.62811" lon="1.87931">
        <ele>1985</ele>
        <time>2024-08-16T10:13:12+02:00</time>
      </trkpt>
      <trkpt lat="42.62776" lon="1.87878">
        <ele>2002</ele>
        <time>2024-08-16T10:14:48+02:00</time>
      </trkpt>
      <trkpt lat="42.62741" lon="1.87849">
        <ele>2019</ele>
        <time>2024-08-16T10:16:29+02:00</time>
      </trkpt>
      <trkpt lat="42.62703" lon="1.87832">
        <ele>2032</ele>
        <time>2024-08-16T10:18:40+02:00</time>
      </trkpt>
      <trkpt lat="42.62667" lon="1.87805">
        <ele>2049</ele>
        <time>2024-08-16T10:21:34+02:00</time>
      </trkpt>
      <trkpt lat="42.62625" lon="1.87771">
        <ele>2061</ele>
        <time>2024-08-16T10:24:34+02:00</time>
      </trkpt>
      <trkpt lat="42.62586" lon="1.87747">
        <ele>2073</ele>
        <time>2024-08-16T10:26:02+02:00</time>
      </trkpt>
      <trkpt lat="42.62545" lon="1.87721">
        <ele>2086</ele>
        <time>2024-08-16T10:28:56+02:00</time>
      </trkpt>
      <trkpt lat="42.62508" lon="1.87697">
        <ele>2093</ele>
        <time>2024-08-16T10:30:01+02:00</time>
      </trkpt>
      <trkpt lat="42.62472" lon="1.87667">
        <ele>2100</ele>
        <time>2024-08-16T10:32:28+02:00</time>
      </trkpt>
      <trkpt lat="42.62429" lon="1.87656">
        <ele>2106</ele>
        <time>2024-08-16T10:33:45+02:00</time>
      </trkpt>
      <trkpt lat="42.6239" lon="1.87633">
        <ele>2112</ele>
        <time>2024-08-16T10:34:45+02:00</time>
      </trkpt>
      <trkpt lat="42.6235" lon="1.87602">
        <ele>2120</ele>
        <time>2024-08-16T10:37:58+02:00</time>
      </trkpt>
      <trkpt lat="42.62315" lon="1.87572">
        <ele>2131</ele>
        <time>2024-08-16T10:39:10+02:00</time>
      </trkpt>
      <trkpt lat="42.62276" lon="1.87544">
        <ele>2143</ele>
        <time>2024-08-16T10:39:32+02:00</time>
      </trkpt>
      <trkpt lat="42.62236" lon="1.87528">
        <ele>2153</ele>
        <time>2024-08-16T10:40:33+02:00</time>
      </trkpt>
      <trkpt lat="42.62194" lon="1.87512">
        <ele>2168</ele>
        <time>2024-08-16T10:42:58+02:00</time>
      </trkpt>
      <trkpt lat="42.62163" lon="1.87476">
        <ele>2183</ele>
        <time>2024-08-16T10:44:55+02:00</time>
      </trkpt>
      <trkpt lat="42.62142" lon="1.87427">
        <ele>2197</ele>
        <time>2024-08-16T10:47:16+02:00</time>
      </trkpt>
      <trkpt lat="42.62101" lon="1.87414">
        <ele>2212</ele>
        <time>2024-08-16T10:48:46+02:00</time>
      </trkpt>
      <trkpt lat="42.62061" lon="1.87399">
        <ele>2226</ele>
        <time>2024-08-16T10:51:08+02:00</time>
      </trkpt>
      <trkpt lat="42.62021" lon="1.87411">
        <ele>2243</ele>
        <time>2024-08-16T10:52:02+02:00</time>
      </trkpt>
      <trkpt lat="42.61984" lon="1.8738">
        <ele>2258</ele>
        <time>2024-08-16T10:54:59+02:00</time>
      </trkpt>
      <trkpt lat="42.61943" lon="1.87375">
        <ele>2270</ele>
        <time>2024-08-16T10:56:44+02:00</time>
      </trkpt>
      <trkpt lat="42.61902" lon="1.87385">
        <ele>2286</ele>
        <time>2024-08-16T10:58:32+02:00</time>
      </trkpt>
      <trkpt lat="42.61862" lon="1.87402">
        <ele>2301</ele>
        <time>2024-08-16T11:00:32+02:00</time>
      </trkpt>
      <trkpt lat="42.61821" lon="1.87411">
        <ele>2313</ele>
        <time>2024-08-16T11:02:50+02:00</time>
      </trkpt>
      <trkpt lat="42.61781" lon="1.874">
        <ele>2325</ele>
        <time>2024-08-16T11:04:38+02:00</time>
      </trkpt>
      <trkpt lat="42.61739" lon="1.87414">
        <ele>2330</ele>
        <time>2024-08-16T11:07:04+02:00</time>
      </trkpt>
      <trkpt lat="42.61695" lon="1.8742">
        <ele>2335</ele>
        <time>2024-08-16T11:08:46+02:00</time>
      </trkpt>
      <trkpt lat="42.61659" lon="1.87387">
        <ele>2341</ele>
        <time>2024-08-16T11:10:51+02:00</time>
      </trkpt>
      <trkpt lat="42.61633" lon="1.8734">
        <ele>2339</ele>
        <time>2024-08-16T11:12:28+02:00</time>
      </trkpt>
      <trkpt lat="42.61606" lon="1.87299">
        <ele>2334</ele>
        <time>2024-08-16T11:13:52+02:00</time>
      </trkpt>
      <trkpt lat="42.61578" lon="1.87254">
        <ele>2323</ele>
        <time>2024-08-16T11:14:58+02:00</time>
      </trkpt>
      <trkpt lat="42.61558" lon="1.87207">
        <ele>2313</ele>
        <time>2024-08-16T11:18:22+02:00</time>
      </trkpt>
      <trkpt lat="42.61526" lon="1.87158">
        <ele>2305</ele>
        <time>2024-08-16T11:20:39+02:00</time>
      </trkpt>
      <trkpt lat="42.61488" lon="1.87132">
        <ele>2287</ele>
        <time>2024-08-16T11:21:45+02:00</time>
      </trkpt>
      <trkpt lat="42.61449" lon="1.87104">
        <ele>2271</ele>
        <time>2024-08-16T11:22:39+02:00</time>
      </trkpt>
      <trkpt lat="42.61411" lon="1.87075">
        <ele>2256</ele>
        <time>2024-08-16T11:23:39+02:00</time>
      </trkpt>
      <trkpt lat="42.61372" lon="1.87055">
        <ele>2242</ele>
        <time>2024-08-16T11:25:09+02:00</time>
      </trkpt>
      <trkpt lat="42.61331" lon="1.8704">
        <ele>2240</ele>
        <time>2024-08-16T11:26:53+02:00</time>
      </trkpt>
      <trkpt lat="42.613" lon="1.86994">
        <ele>2232</ele>
        <time>2024-08-16T11:27:57+02:00</time>
      </trkpt>
      <trkpt lat="42.61269" lon="1.86953">
        <ele>2222</ele>
        <time>2024-08-16T11:28:46+02:00</time>
      </trkpt>
      <trkpt lat="42.61233" lon="1.8691">
        <ele>2222</ele>
        <time>2024-08-16T11:29:34+02:00</time>
      </trkpt>
      <trkpt lat="42.61191" lon="1.86892">
        <ele>2223</ele>
        <time>2024-08-16T11:30:09+02:00</time>
      </trkpt>
      <trkpt lat="42.61154" lon="1.86865">
        <ele>2220</ele>
        <time>2024-08-16T11:30:39+02:00</time>
      </trkpt>
      <trkpt lat="42.61124" lon="1.86826">
        <ele>2218</ele>
        <time>2024-08-16T11:31:15+02:00</time>
      </trkpt>
      <trkpt lat="42.61086" lon="1.8679">
        <ele>2212</ele>
        <time>2024-08-16T11:32:09+02:00</time>
      </trkpt>
      <trkpt lat="42.61044" lon="1.86762">
        <ele>2204</ele>
        <time>2024-08-16T11:32:43+02:00</time>
      </trkpt>
      <trkpt lat="42.61001" lon="1.86749">
        <ele>2199</ele>
        <time>2024-08-16T11:33:15+02:00</time>
      </trkpt>
      <trkpt lat="42.60961" lon="1.86736">
        <ele>2188</ele>
        <time>2024-08-16T11:33:45+02:00</time>
      </trkpt>
      <trkpt lat="42.60919" lon="1.8672">
        <ele>2178</ele>
        <time>2024-08-16T11:34:21+02:00</time>
      </trkpt>
      <trkpt lat="42.60879" lon="1.86702">
        <ele>2166</ele>
        <time>2024-08-16T11:35:03+02:00</time>
      </trkpt>
      <trkpt lat="42.60841" lon="1.8667">
        <ele>2157</ele>
        <time>2024-08-16T11:35:51+02:00</time>
      </trkpt>
      <trkpt lat="42.60802" lon="1.86657">
        <ele>2153</ele>
        <time>2024-08-16T11:36:57+02:00</time>
      </trkpt>
      <trkpt lat="42.6076" lon="1.86646">
        <ele>2146</ele>
        <time>2024-08-16T11:38:03+02:00</time>
      </trkpt>
      <trkpt lat="42.60719" lon="1.86645">
        <ele>2145</ele>
        <time>2024-08-16T11:39:15+02:00</time>
      </trkpt>
      <trkpt lat="42.60707" lon="1.86704">
        <ele>2147</ele>
        <time>2024-08-16T11:40:44+02:00</time>
      </trkpt>
      <trkpt lat="42.60662" lon="1.8672">
        <ele>2150</ele>
        <time>2024-08-16T11:41:11+02:00</time>
      </trkpt>
      <trkpt lat="42.6066" lon="1.8678">
        <ele>2151</ele>
        <time>2024-08-16T11:41:58+02:00</time>
      </trkpt>
      <trkpt lat="42.60655" lon="1.86836">
        <ele>2150</ele>
        <time>2024-08-16T11:43:10+02:00</time>
      </trkpt>
      <trkpt lat="42.6062" lon="1.86878">
        <ele>2151</ele>
        <time>2024-08-16T11:44:46+02:00</time>
      </trkpt>
      <trkpt lat="42.6058" lon="1.86903">
        <ele>2153</ele>
        <time>2024-08-16T11:46:04+02:00</time>
      </trkpt>
      <trkpt lat="42.60541" lon="1.8692">
        <ele>2153</ele>
        <time>2024-08-16T11:47:16+02:00</time>
      </trkpt>
      <trkpt lat="42.60499" lon="1.86895">
        <ele>2150</ele>
        <time>2024-08-16T11:48:17+02:00</time>
      </trkpt>
      <trkpt lat="42.60455" lon="1.86875">
        <ele>2145</ele>
        <time>2024-08-16T11:49:11+02:00</time>
      </trkpt>
      <trkpt lat="42.60415" lon="1.86866">
        <ele>2139</ele>
        <time>2024-08-16T11:50:29+02:00</time>
      </trkpt>
      <trkpt lat="42.60373" lon="1.86867">
        <ele>2134</ele>
        <time>2024-08-16T11:51:44+02:00</time>
      </trkpt>
      <trkpt lat="42.60402" lon="1.8682">
        <ele>2129</ele>
        <time>2024-08-16T12:05:44+02:00</time>
      </trkpt>
      <trkpt lat="42.60357" lon="1.86811">
        <ele>2127</ele>
        <time>2024-08-16T12:26:02+02:00</time>
      </trkpt>
      <trkpt lat="42.6032" lon="1.86845">
        <ele>2124</ele>
        <time>2024-08-16T12:27:26+02:00</time>
      </trkpt>
      <trkpt lat="42.60308" lon="1.86905">
        <ele>2118</ele>
        <time>2024-08-16T12:28:26+02:00</time>
      </trkpt>
      <trkpt lat="42.60286" lon="1.86955">
        <ele>2119</ele>
        <time>2024-08-16T12:29:19+02:00</time>
      </trkpt>
      <trkpt lat="42.60286" lon="1.87014">
        <ele>2122</ele>
        <time>2024-08-16T12:30:21+02:00</time>
      </trkpt>
      <trkpt lat="42.60298" lon="1.87076">
        <ele>2124</ele>
        <time>2024-08-16T12:31:51+02:00</time>
      </trkpt>
      <trkpt lat="42.60323" lon="1.87124">
        <ele>2132</ele>
        <time>2024-08-16T12:32:54+02:00</time>
      </trkpt>
      <trkpt lat="42.60332" lon="1.87178">
        <ele>2138</ele>
        <time>2024-08-16T12:33:54+02:00</time>
      </trkpt>
      <trkpt lat="42.60364" lon="1.87218">
        <ele>2146</ele>
        <time>2024-08-16T12:35:37+02:00</time>
      </trkpt>
      <trkpt lat="42.60362" lon="1.87283">
        <ele>2153</ele>
        <time>2024-08-16T12:37:12+02:00</time>
      </trkpt>
      <trkpt lat="42.60381" lon="1.87335">
        <ele>2156</ele>
        <time>2024-08-16T12:38:13+02:00</time>
      </trkpt>
      <trkpt lat="42.60398" lon="1.87386">
        <ele>2163</ele>
        <time>2024-08-16T12:39:13+02:00</time>
      </trkpt>
      <trkpt lat="42.6041" lon="1.87439">
        <ele>2169</ele>
        <time>2024-08-16T12:40:06+02:00</time>
      </trkpt>
      <trkpt lat="42.60423" lon="1.87516">
        <ele>2176</ele>
        <time>2024-08-16T12:42:02+02:00</time>
      </trkpt>
      <trkpt lat="42.60436" lon="1.87571">
        <ele>2179</ele>
        <time>2024-08-16T12:42:26+02:00</time>
      </trkpt>
      <trkpt lat="42.60472" lon="1.87602">
        <ele>2178</ele>
        <time>2024-08-16T12:43:25+02:00</time>
      </trkpt>
      <trkpt lat="42.605" lon="1.87657">
        <ele>2182</ele>
        <time>2024-08-16T12:44:19+02:00</time>
      </trkpt>
      <trkpt lat="42.60504" lon="1.87716">
        <ele>2189</ele>
        <time>2024-08-16T12:45:07+02:00</time>
      </trkpt>
      <trkpt lat="42.60523" lon="1.8777">
        <ele>2193</ele>
        <time>2024-08-16T12:46:13+02:00</time>
      </trkpt>
      <trkpt lat="42.60547" lon="1.87816">
        <ele>2200</ele>
        <time>2024-08-16T12:47:01+02:00</time>
      </trkpt>
      <trkpt lat="42.60571" lon="1.87861">
        <ele>2201</ele>
        <time>2024-08-16T12:48:07+02:00</time>
      </trkpt>
      <trkpt lat="42.60597" lon="1.8791">
        <ele>2201</ele>
        <time>2024-08-16T12:49:31+02:00</time>
      </trkpt>
      <trkpt lat="42.60626" lon="1.87952">
        <ele>2206</ele>
        <time>2024-08-16T12:50:43+02:00</time>
      </trkpt>
      <trkpt lat="42.60646" lon="1.88005">
        <ele>2206</ele>
        <time>2024-08-16T12:51:16+02:00</time>
      </trkpt>
      <trkpt lat="42.6067" lon="1.88052">
        <ele>2208</ele>
        <time>2024-08-16T12:51:52+02:00</time>
      </trkpt>
      <trkpt lat="42.60716" lon="1.8808">
        <ele>2209</ele>
        <time>2024-08-16T12:52:34+02:00</time>
      </trkpt>
      <trkpt lat="42.60744" lon="1.88124">
        <ele>2214</ele>
        <time>2024-08-16T12:54:04+02:00</time>
      </trkpt>
      <trkpt lat="42.60783" lon="1.88148">
        <ele>2224</ele>
        <time>2024-08-16T12:55:45+02:00</time>
      </trkpt>
      <trkpt lat="42.60806" lon="1.88196">
        <ele>2233</ele>
        <time>2024-08-16T12:57:37+02:00</time>
      </trkpt>
      <trkpt lat="42.60824" lon="1.88248">
        <ele>2245</ele>
        <time>2024-08-16T12:58:59+02:00</time>
      </trkpt>
      <trkpt lat="42.60831" lon="1.88304">
        <ele>2260</ele>
        <time>2024-08-16T12:59:22+02:00</time>
      </trkpt>
      <trkpt lat="42.60853" lon="1.88355">
        <ele>2277</ele>
        <time>2024-08-16T13:00:22+02:00</time>
      </trkpt>
      <trkpt lat="42.60888" lon="1.88383">
        <ele>2291</ele>
        <time>2024-08-16T13:02:15+02:00</time>
      </trkpt>
      <trkpt lat="42.60889" lon="1.88442">
        <ele>2307</ele>
        <time>2024-08-16T13:03:32+02:00</time>
      </trkpt>
      <trkpt lat="42.60865" lon="1.88491">
        <ele>2321</ele>
        <time>2024-08-16T13:05:40+02:00</time>
      </trkpt>
      <trkpt lat="42.60844" lon="1.8854">
        <ele>2336</ele>
        <time>2024-08-16T13:09:15+02:00</time>
      </trkpt>
      <trkpt lat="42.60838" lon="1.886">
        <ele>2350</ele>
        <time>2024-08-16T13:11:28+02:00</time>
      </trkpt>
      <trkpt lat="42.60832" lon="1.88655">
        <ele>2361</ele>
        <time>2024-08-16T13:15:04+02:00</time>
      </trkpt>
      <trkpt lat="42.60829" lon="1.88712">
        <ele>2371</ele>
        <time>2024-08-16T13:16:47+02:00</time>
      </trkpt>
      <trkpt lat="42.6083" lon="1.88771">
        <ele>2377</ele>
        <time>2024-08-16T13:18:51+02:00</time>
      </trkpt>
      <trkpt lat="42.60862" lon="1.88816">
        <ele>2386</ele>
        <time>2024-08-16T13:20:16+02:00</time>
      </trkpt>
      <trkpt lat="42.60875" lon="1.88869">
        <ele>2393</ele>
        <time>2024-08-16T13:22:10+02:00</time>
      </trkpt>
      <trkpt lat="42.60886" lon="1.88924">
        <ele>2396</ele>
        <time>2024-08-16T13:23:45+02:00</time>
      </trkpt>
      <trkpt lat="42.60915" lon="1.88976">
        <ele>2400</ele>
        <time>2024-08-16T13:24:18+02:00</time>
      </trkpt>
      <trkpt lat="42.60923" lon="1.89033">
        <ele>2402</ele>
        <time>2024-08-16T13:25:24+02:00</time>
      </trkpt>
      <trkpt lat="42.60942" lon="1.89097">
        <ele>2409</ele>
        <time>2024-08-16T13:26:30+02:00</time>
      </trkpt>
      <trkpt lat="42.60969" lon="1.89141">
        <ele>2418</ele>
        <time>2024-08-16T13:27:48+02:00</time>
      </trkpt>
      <trkpt lat="42.60985" lon="1.89194">
        <ele>2425</ele>
        <time>2024-08-16T13:28:59+02:00</time>
      </trkpt>
      <trkpt lat="42.60979" lon="1.89253">
        <ele>2432</ele>
        <time>2024-08-16T13:30:06+02:00</time>
      </trkpt>
      <trkpt lat="42.61016" lon="1.8929">
        <ele>2444</ele>
        <time>2024-08-16T13:30:53+02:00</time>
      </trkpt>
      <trkpt lat="42.61014" lon="1.89348">
        <ele>2456</ele>
        <time>2024-08-16T13:34:02+02:00</time>
      </trkpt>
      <trkpt lat="42.61001" lon="1.89403">
        <ele>2468</ele>
        <time>2024-08-16T13:35:52+02:00</time>
      </trkpt>
      <trkpt lat="42.61041" lon="1.89445">
        <ele>2482</ele>
        <time>2024-08-16T13:38:53+02:00</time>
      </trkpt>
      <trkpt lat="42.61049" lon="1.89501">
        <ele>2492</ele>
        <time>2024-08-16T13:40:05+02:00</time>
      </trkpt>
      <trkpt lat="42.61008" lon="1.89504">
        <ele>2503</ele>
        <time>2024-08-16T13:43:11+02:00</time>
      </trkpt>
      <trkpt lat="42.60993" lon="1.89558">
        <ele>2514</ele>
        <time>2024-08-16T13:44:29+02:00</time>
      </trkpt>
      <trkpt lat="42.60975" lon="1.89613">
        <ele>2517</ele>
        <time>2024-08-16T13:45:41+02:00</time>
      </trkpt>
      <trkpt lat="42.61002" lon="1.89656">
        <ele>2520</ele>
        <time>2024-08-16T13:47:23+02:00</time>
      </trkpt>
      <trkpt lat="42.61018" lon="1.89707">
        <ele>2522</ele>
        <time>2024-08-16T13:48:34+02:00</time>
      </trkpt>
      <trkpt lat="42.61033" lon="1.89767">
        <ele>2521</ele>
        <time>2024-08-16T13:50:11+02:00</time>
      </trkpt>
      <trkpt lat="42.61055" lon="1.89814">
        <ele>2519</ele>
        <time>2024-08-16T13:51:20+02:00</time>
      </trkpt>
      <trkpt lat="42.61072" lon="1.89867">
        <ele>2514</ele>
        <time>2024-08-16T14:05:34+02:00</time>
      </trkpt>
      <trkpt lat="42.61082" lon="1.89926">
        <ele>2509</ele>
        <time>2024-08-16T14:06:34+02:00</time>
      </trkpt>
      <trkpt lat="42.61099" lon="1.89988">
        <ele>2505</ele>
        <time>2024-08-16T14:07:16+02:00</time>
      </trkpt>
      <trkpt lat="42.61106" lon="1.90049">
        <ele>2499</ele>
        <time>2024-08-16T14:07:58+02:00</time>
      </trkpt>
      <trkpt lat="42.61102" lon="1.90104">
        <ele>2491</ele>
        <time>2024-08-16T14:08:46+02:00</time>
      </trkpt>
      <trkpt lat="42.61069" lon="1.90143">
        <ele>2486</ele>
        <time>2024-08-16T14:09:35+02:00</time>
      </trkpt>
      <trkpt lat="42.61035" lon="1.90174">
        <ele>2477</ele>
        <time>2024-08-16T14:10:16+02:00</time>
      </trkpt>
      <trkpt lat="42.61026" lon="1.9023">
        <ele>2469</ele>
        <time>2024-08-16T14:11:22+02:00</time>
      </trkpt>
      <trkpt lat="42.61005" lon="1.90282">
        <ele>2462</ele>
        <time>2024-08-16T14:12:04+02:00</time>
      </trkpt>
      <trkpt lat="42.60971" lon="1.90319">
        <ele>2454</ele>
        <time>2024-08-16T14:12:53+02:00</time>
      </trkpt>
      <trkpt lat="42.60929" lon="1.90313">
        <ele>2447</ele>
        <time>2024-08-16T14:13:52+02:00</time>
      </trkpt>
      <trkpt lat="42.60898" lon="1.9036">
        <ele>2439</ele>
        <time>2024-08-16T14:14:52+02:00</time>
      </trkpt>
      <trkpt lat="42.60868" lon="1.90408">
        <ele>2431</ele>
        <time>2024-08-16T14:15:34+02:00</time>
      </trkpt>
      <trkpt lat="42.60835" lon="1.90449">
        <ele>2423</ele>
        <time>2024-08-16T14:16:16+02:00</time>
      </trkpt>
      <trkpt lat="42.60794" lon="1.90473">
        <ele>2410</ele>
        <time>2024-08-16T14:17:04+02:00</time>
      </trkpt>
      <trkpt lat="42.60771" lon="1.90526">
        <ele>2398</ele>
        <time>2024-08-16T14:17:52+02:00</time>
      </trkpt>
      <trkpt lat="42.60726" lon="1.90512">
        <ele>2388</ele>
        <time>2024-08-16T14:18:40+02:00</time>
      </trkpt>
      <trkpt lat="42.60703" lon="1.90566">
        <ele>2378</ele>
        <time>2024-08-16T14:19:23+02:00</time>
      </trkpt>
      <trkpt lat="42.60685" lon="1.90626">
        <ele>2368</ele>
        <time>2024-08-16T14:20:47+02:00</time>
      </trkpt>
      <trkpt lat="42.60646" lon="1.90602">
        <ele>2355</ele>
        <time>2024-08-16T14:23:05+02:00</time>
      </trkpt>
      <trkpt lat="42.60604" lon="1.90608">
        <ele>2345</ele>
        <time>2024-08-16T14:24:23+02:00</time>
      </trkpt>
      <trkpt lat="42.60559" lon="1.90607">
        <ele>2335</ele>
        <time>2024-08-16T14:25:05+02:00</time>
      </trkpt>
      <trkpt lat="42.60572" lon="1.90661">
        <ele>2328</ele>
        <time>2024-08-16T14:26:12+02:00</time>
      </trkpt>
      <trkpt lat="42.6053" lon="1.90684">
        <ele>2322</ele>
        <time>2024-08-16T14:27:12+02:00</time>
      </trkpt>
      <trkpt lat="42.60489" lon="1.90711">
        <ele>2315</ele>
        <time>2024-08-16T14:28:17+02:00</time>
      </trkpt>
      <trkpt lat="42.60448" lon="1.90728">
        <ele>2308</ele>
        <time>2024-08-16T14:29:11+02:00</time>
      </trkpt>
      <trkpt lat="42.60403" lon="1.90725">
        <ele>2302</ele>
        <time>2024-08-16T14:30:00+02:00</time>
      </trkpt>
      <trkpt lat="42.60367" lon="1.90755">
        <ele>2299</ele>
        <time>2024-08-16T14:30:50+02:00</time>
      </trkpt>
      <trkpt lat="42.60333" lon="1.90793">
        <ele>2296</ele>
        <time>2024-08-16T14:31:38+02:00</time>
      </trkpt>
      <trkpt lat="42.60258" lon="1.90829">
        <ele>2292</ele>
        <time>2024-08-16T14:32:25+02:00</time>
      </trkpt>
      <trkpt lat="42.60224" lon="1.90864">
        <ele>2289</ele>
        <time>2024-08-16T14:33:12+02:00</time>
      </trkpt>
      <trkpt lat="42.60188" lon="1.90897">
        <ele>2287</ele>
        <time>2024-08-16T14:33:54+02:00</time>
      </trkpt>
      <trkpt lat="42.60163" lon="1.90949">
        <ele>2287</ele>
        <time>2024-08-16T14:34:36+02:00</time>
      </trkpt>
      <trkpt lat="42.60126" lon="1.90985">
        <ele>2289</ele>
        <time>2024-08-16T14:35:17+02:00</time>
      </trkpt>
      <trkpt lat="42.60114" lon="1.91046">
        <ele>2289</ele>
        <time>2024-08-16T14:35:59+02:00</time>
      </trkpt>
      <trkpt lat="42.60115" lon="1.91103">
        <ele>2287</ele>
        <time>2024-08-16T14:36:47+02:00</time>
      </trkpt>
      <trkpt lat="42.60095" lon="1.91162">
        <ele>2289</ele>
        <time>2024-08-16T14:37:41+02:00</time>
      </trkpt>
      <trkpt lat="42.60073" lon="1.9121">
        <ele>2288</ele>
        <time>2024-08-16T14:38:41+02:00</time>
      </trkpt>
      <trkpt lat="42.60038" lon="1.91257">
        <ele>2286</ele>
        <time>2024-08-16T14:40:00+02:00</time>
      </trkpt>
      <trkpt lat="42.60009" lon="1.913">
        <ele>2285</ele>
        <time>2024-08-16T14:40:41+02:00</time>
      </trkpt>
      <trkpt lat="42.60013" lon="1.91358">
        <ele>2281</ele>
        <time>2024-08-16T14:41:30+02:00</time>
      </trkpt>
      <trkpt lat="42.60024" lon="1.91416">
        <ele>2281</ele>
        <time>2024-08-16T14:42:17+02:00</time>
      </trkpt>
      <trkpt lat="42.60027" lon="1.91473">
        <ele>2283</ele>
        <time>2024-08-16T14:43:05+02:00</time>
      </trkpt>
      <trkpt lat="42.59995" lon="1.91508">
        <ele>2285</ele>
        <time>2024-08-16T14:43:53+02:00</time>
      </trkpt>
      <trkpt lat="42.59986" lon="1.91563">
        <ele>2293</ele>
        <time>2024-08-16T14:44:41+02:00</time>
      </trkpt>
      <trkpt lat="42.59945" lon="1.91559">
        <ele>2300</ele>
        <time>2024-08-16T14:45:48+02:00</time>
      </trkpt>
      <trkpt lat="42.59906" lon="1.91541">
        <ele>2307</ele>
        <time>2024-08-16T14:46:41+02:00</time>
      </trkpt>
      <trkpt lat="42.59866" lon="1.91523">
        <ele>2318</ele>
        <time>2024-08-16T14:47:24+02:00</time>
      </trkpt>
      <trkpt lat="42.59841" lon="1.91571">
        <ele>2324</ele>
        <time>2024-08-16T14:48:58+02:00</time>
      </trkpt>
      <trkpt lat="42.59833" lon="1.91628">
        <ele>2326</ele>
        <time>2024-08-16T14:50:11+02:00</time>
      </trkpt>
      <trkpt lat="42.59829" lon="1.91684">
        <ele>2326</ele>
        <time>2024-08-16T14:51:02+02:00</time>
      </trkpt>
      <trkpt lat="42.59818" lon="1.91742">
        <ele>2322</ele>
        <time>2024-08-16T14:51:54+02:00</time>
      </trkpt>
      <trkpt lat="42.59799" lon="1.91794">
        <ele>2317</ele>
        <time>2024-08-16T14:52:36+02:00</time>
      </trkpt>
      <trkpt lat="42.59806" lon="1.91857">
        <ele>2341</ele>
        <time>2024-08-16T14:53:18+02:00</time>
      </trkpt>
      <trkpt lat="42.59802" lon="1.91917">
        <ele>2334</ele>
        <time>2024-08-16T14:54:06+02:00</time>
      </trkpt>
      <trkpt lat="42.59773" lon="1.91964">
        <ele>2317</ele>
        <time>2024-08-16T14:54:54+02:00</time>
      </trkpt>
      <trkpt lat="42.59749" lon="1.91999">
        <ele>2258</ele>
        <time>2024-08-16T15:38:32+02:00</time>
        <extensions>
          <visugpx:TrkExtension xmlns:visugpx="https://www.visugpx.com/editgpx/">
            <visugpx:node>3</visugpx:node>
            </visugpx:TrkExtension>
        </extensions>
      </trkpt>
    </trkseg>
  </trk>
</gpx>